Time;durP1;ratioP1;P1;durP2;ratioP2;P2;SDS_P1;SDS_P2;PMS_P1;PMS_P2;Temp;Humidity;BMP_temperature;BMP_pressure;BME280_temperature;BME280_humidity;BME280_pressure;Samples;Min_cycle;Max_cycle;Signal;HPM_P1;HPM_P2
2022/11/20 00:01:49;;;;;;;23.50;14.57;;;4.30;99.90;;;;;;4144577;28;20329;-70
2022/11/20 00:03:52;;;;;;;25.83;16.50;;;4.20;99.90;;;;;;4144858;28;20272;-67
2022/11/20 00:05:53;;;;;;;26.60;15.73;;;4.20;99.90;;;;;;4144783;28;20256;-69
2022/11/20 00:07:54;;;;;;;26.67;15.43;;;4.20;99.90;;;;;;4145724;28;20658;-62
2022/11/20 00:09:55;;;;;;;26.10;16.03;;;4.20;99.90;;;;;;4144244;28;20263;-65
2022/11/20 00:11:57;;;;;;;32.10;20.30;;;4.20;99.90;;;;;;4128055;28;20347;-61
2022/11/20 00:14:00;;;;;;;27.10;16.53;;;4.30;99.90;;;;;;4141901;28;20353;-63
2022/11/20 00:16:03;;;;;;;32.20;19.87;;;4.30;99.90;;;;;;4145546;28;20389;-63
2022/11/20 00:18:04;;;;;;;25.70;16.33;;;4.30;99.90;;;;;;4144536;28;20786;-63
2022/11/20 00:20:06;;;;;;;25.07;15.90;;;4.30;99.90;;;;;;4145771;28;20095;-62
2022/11/20 00:22:07;;;;;;;25.87;15.47;;;4.30;99.90;;;;;;4143786;28;20289;-61
2022/11/20 00:24:10;;;;;;;26.90;17.40;;;4.30;99.90;;;;;;4145005;28;20042;-70
2022/11/20 00:26:13;;;;;;;35.63;22.27;;;4.30;99.90;;;;;;4143908;28;20643;-63
2022/11/20 00:28:14;;;;;;;29.03;18.00;;;4.30;99.90;;;;;;4145259;28;20306;-63
2022/11/20 00:30:16;;;;;;;38.23;24.57;;;4.30;99.90;;;;;;4144121;28;21057;-63
2022/11/20 00:32:17;;;;;;;39.07;24.90;;;4.30;99.90;;;;;;4144479;28;20291;-62
2022/11/20 00:34:18;;;;;;;37.43;23.07;;;4.30;99.90;;;;;;4144361;28;20263;-70
2022/11/20 00:36:25;;;;;;;27.60;18.50;;;4.30;99.90;;;;;;4144674;28;20313;-71
2022/11/20 00:38:26;;;;;;;32.67;18.83;;;4.30;99.90;;;;;;4145183;28;20353;-70
2022/11/20 00:40:27;;;;;;;35.80;21.67;;;4.30;99.90;;;;;;4143251;28;20283;-62
2022/11/20 00:42:28;;;;;;;39.57;25.47;;;4.40;99.90;;;;;;4145102;28;20506;-65
2022/11/20 00:44:29;;;;;;;27.47;17.20;;;4.40;99.90;;;;;;4144323;28;20268;-64
2022/11/20 00:46:30;;;;;;;25.00;15.97;;;4.40;99.90;;;;;;4145069;28;20050;-69
2022/11/20 00:48:32;;;;;;;25.87;16.03;;;4.40;99.90;;;;;;4144195;28;20284;-63
2022/11/20 00:50:33;;;;;;;27.27;16.27;;;4.40;99.90;;;;;;4144130;28;20267;-62
2022/11/20 00:52:34;;;;;;;25.13;16.07;;;4.40;99.90;;;;;;4141978;28;20326;-62
2022/11/20 00:54:35;;;;;;;25.83;16.60;;;4.40;99.90;;;;;;4144761;28;20759;-68
2022/11/20 00:56:36;;;;;;;34.77;21.93;;;4.40;99.90;;;;;;4143539;28;20287;-66
2022/11/20 00:58:39;;;;;;;22.73;14.30;;;4.40;99.90;;;;;;4145105;28;20030;-66
2022/11/20 01:00:40;;;;;;;32.27;19.87;;;4.40;99.90;;;;;;4143731;28;20030;-63
2022/11/20 01:02:41;;;;;;;31.80;19.57;;;4.40;99.90;;;;;;4143825;28;20429;-68
2022/11/20 01:04:42;;;;;;;38.50;22.97;;;4.50;99.90;;;;;;4144012;28;20042;-64
2022/11/20 01:06:43;;;;;;;37.87;22.77;;;4.40;99.90;;;;;;4144684;28;20026;-67
2022/11/20 01:08:45;;;;;;;28.37;17.50;;;4.40;99.90;;;;;;4145103;28;20072;-62
2022/11/20 01:10:46;;;;;;;39.03;24.87;;;4.50;99.90;;;;;;4143030;28;20263;-62
2022/11/20 01:13:36;;;;;;;23.90;15.27;;;4.50;99.90;;;;;;4144896;28;20825;-62
2022/11/20 01:15:09;;;;;;;31.67;20.33;;;4.40;99.90;;;;;;4143807;28;20291;-71
2022/11/20 01:17:10;;;;;;;27.33;18.17;;;4.50;99.90;;;;;;4144590;28;20760;-66
2022/11/20 01:19:15;;;;;;;20.77;13.40;;;4.50;99.90;;;;;;4143979;28;20114;-68
2022/11/20 01:21:27;;;;;;;23.23;14.00;;;4.50;99.90;;;;;;4145138;28;20042;-67
2022/11/20 01:23:31;;;;;;;20.37;12.73;;;4.40;99.90;;;;;;4143999;28;20259;-63
2022/11/20 01:25:34;;;;;;;18.87;12.60;;;4.40;99.90;;;;;;4144273;28;20120;-63
2022/11/20 01:27:35;;;;;;;17.03;11.90;;;4.40;99.90;;;;;;4144096;28;20252;-62
2022/11/20 01:29:36;;;;;;;21.17;12.90;;;4.40;99.90;;;;;;4144444;28;20747;-62
2022/11/20 01:31:37;;;;;;;21.17;13.23;;;4.40;99.90;;;;;;4143990;28;20295;-67
2022/11/20 01:33:40;;;;;;;18.83;12.30;;;4.40;99.90;;;;;;4143369;28;20045;-66
2022/11/20 01:35:42;;;;;;;18.27;11.83;;;4.40;99.90;;;;;;4144676;28;20451;-62
2022/11/20 01:37:43;;;;;;;21.20;12.63;;;4.40;99.90;;;;;;4148294;28;20267;-62
2022/11/20 01:39:44;;;;;;;17.73;12.00;;;4.40;99.90;;;;;;4146640;28;20373;-69
2022/11/20 01:44:11;;;;;;;19.47;12.73;;;4.40;99.90;;;;;;4099902;28;20377;-62
2022/11/20 01:46:18;;;;;;;16.43;11.63;;;4.40;99.90;;;;;;4133026;28;20676;-62
2022/11/20 01:48:22;;;;;;;18.30;11.77;;;4.40;99.90;;;;;;4146552;28;20267;-62
2022/11/20 01:50:28;;;;;;;15.43;11.27;;;4.40;99.90;;;;;;4147996;28;20272;-68
2022/11/20 01:52:53;;;;;;;19.63;12.20;;;4.40;99.90;;;;;;4147063;28;20292;-63
2022/11/20 01:55:10;;;;;;;19.43;12.13;;;4.40;99.90;;;;;;4140439;28;20315;-67
2022/11/20 01:57:12;;;;;;;18.13;11.83;;;4.40;99.90;;;;;;4146151;28;20271;-67
2022/11/20 01:59:17;;;;;;;16.87;11.50;;;4.40;99.90;;;;;;4147818;28;20275;-66
2022/11/20 02:01:19;;;;;;;19.43;12.30;;;4.40;99.90;;;;;;4146347;28;20417;-61
2022/11/20 02:03:20;;;;;;;19.53;11.97;;;4.40;99.90;;;;;;4146812;28;20349;-67
2022/11/20 02:05:50;;;;;;;19.30;12.33;;;4.40;99.90;;;;;;4146827;28;20247;-68
2022/11/20 02:07:54;;;;;;;19.40;11.00;;;4.50;99.90;;;;;;4147808;28;20267;-62
2022/11/20 02:09:55;;;;;;;19.47;12.53;;;4.40;99.90;;;;;;4146345;28;20260;-69
2022/11/20 02:11:57;;;;;;;21.80;13.07;;;4.40;99.90;;;;;;4146231;28;20434;-69
2022/11/20 02:13:59;;;;;;;22.30;13.70;;;4.40;99.90;;;;;;4145866;28;20322;-62
2022/11/20 02:16:01;;;;;;;21.97;12.80;;;4.40;99.90;;;;;;4146422;28;20579;-62
2022/11/20 02:18:03;;;;;;;21.70;14.07;;;4.40;99.90;;;;;;4146311;28;20104;-62
2022/11/20 02:20:05;;;;;;;21.27;13.50;;;4.50;99.90;;;;;;4146130;28;20281;-61
2022/11/20 02:22:25;;;;;;;21.07;14.03;;;4.50;99.90;;;;;;4147735;28;20267;-67
2022/11/20 02:24:26;;;;;;;21.55;13.38;;;4.50;99.90;;;;;;4146747;28;20026;-62
2022/11/20 02:26:30;;;;;;;20.00;12.97;;;4.60;99.90;;;;;;4147229;28;20433;-66
2022/11/20 02:28:31;;;;;;;21.07;13.43;;;4.60;99.90;;;;;;4145803;28;20494;-69
2022/11/20 02:30:32;;;;;;;22.20;13.70;;;4.60;99.90;;;;;;4147590;28;20363;-68
2022/11/20 02:32:35;;;;;;;20.10;13.27;;;4.70;99.90;;;;;;4145285;28;20046;-66
2022/11/20 02:34:36;;;;;;;20.40;12.87;;;4.70;99.90;;;;;;4147528;28;20037;-67
2022/11/20 02:36:41;;;;;;;20.47;12.83;;;4.70;99.90;;;;;;4145299;28;20030;-64
2022/11/20 02:38:43;;;;;;;20.23;13.90;;;4.70;99.90;;;;;;4145762;28;20065;-61
2022/11/20 02:40:44;;;;;;;19.53;13.10;;;4.70;99.90;;;;;;4145724;28;20470;-62
2022/11/20 02:42:45;;;;;;;20.93;13.10;;;4.70;99.90;;;;;;4147101;28;20114;-66
2022/11/20 02:44:47;;;;;;;24.53;13.57;;;4.70;99.90;;;;;;4145150;28;20402;-62
2022/11/20 02:46:48;;;;;;;19.07;12.83;;;4.70;99.90;;;;;;4146353;28;20099;-62
2022/11/20 02:48:49;;;;;;;20.77;13.17;;;4.70;99.90;;;;;;4145950;28;20084;-67
2022/11/20 02:50:50;;;;;;;21.03;14.07;;;4.70;99.90;;;;;;4146654;28;20041;-67
2022/11/20 02:52:51;;;;;;;21.37;13.63;;;4.70;99.90;;;;;;4146143;28;20390;-65
2022/11/20 02:54:52;;;;;;;21.40;13.70;;;4.80;99.90;;;;;;4145622;28;20391;-63
2022/11/20 02:56:54;;;;;;;21.67;13.83;;;4.80;99.90;;;;;;4146445;28;20096;-64
2022/11/20 02:58:55;;;;;;;22.23;13.10;;;4.90;99.90;;;;;;4145466;28;20088;-70
2022/11/20 03:00:56;;;;;;;20.97;12.63;;;4.80;99.90;;;;;;4146538;28;20037;-66
2022/11/20 03:02:57;;;;;;;24.50;14.47;;;4.80;99.90;;;;;;4144688;28;20091;-62
2022/11/20 03:04:58;;;;;;;25.03;14.57;;;4.90;99.90;;;;;;4146507;28;20449;-64
2022/11/20 03:07:00;;;;;;;24.90;14.80;;;4.90;99.90;;;;;;4145758;28;20351;-62
2022/11/20 03:09:01;;;;;;;26.00;16.40;;;4.90;99.90;;;;;;4146358;28;20092;-62
2022/11/20 03:11:06;;;;;;;25.17;15.10;;;4.90;99.90;;;;;;4144814;28;20034;-65
2022/11/20 03:13:07;;;;;;;26.47;16.33;;;4.90;99.90;;;;;;4146264;28;20037;-64
2022/11/20 03:15:09;;;;;;;26.70;15.53;;;4.90;99.90;;;;;;4145461;28;20544;-63
2022/11/20 03:17:10;;;;;;;26.43;15.87;;;4.90;99.90;;;;;;4145588;28;20497;-63
2022/11/20 03:19:12;;;;;;;26.73;13.97;;;4.90;99.90;;;;;;4144957;28;20072;-65
2022/11/20 03:21:14;;;;;;;22.67;13.73;;;4.90;99.90;;;;;;4146326;28;20046;-63
2022/11/20 03:23:15;;;;;;;22.87;13.50;;;4.90;99.90;;;;;;4145711;28;20441;-61
2022/11/20 03:25:16;;;;;;;22.20;13.40;;;4.90;99.90;;;;;;4146077;28;20030;-63
2022/11/20 03:27:17;;;;;;;23.87;13.50;;;4.90;99.90;;;;;;4145446;28;20022;-62
2022/11/20 03:29:18;;;;;;;23.83;14.20;;;4.90;99.90;;;;;;4145184;28;20421;-62
2022/11/20 03:31:25;;;;;;;23.40;13.40;;;4.90;99.90;;;;;;4145555;28;20119;-64
2022/11/20 03:33:28;;;;;;;24.43;13.17;;;4.90;99.90;;;;;;4144680;28;20476;-63
2022/11/20 03:35:29;;;;;;;25.07;14.83;;;4.90;99.90;;;;;;4146513;28;20434;-66
2022/11/20 03:37:30;;;;;;;22.23;13.70;;;4.90;99.90;;;;;;4144930;28;20050;-62
2022/11/20 03:39:31;;;;;;;21.43;13.70;;;5.00;99.90;;;;;;4145438;28;20121;-67
2022/11/20 03:41:37;;;;;;;20.47;12.03;;;4.90;99.90;;;;;;4144727;28;20088;-65
2022/11/20 03:43:39;;;;;;;19.13;11.80;;;5.00;99.90;;;;;;4145088;28;20518;-69
2022/11/20 03:45:40;;;;;;;19.57;11.67;;;5.00;99.90;;;;;;4144271;28;20058;-65
2022/11/20 03:47:41;;;;;;;16.83;10.67;;;5.00;99.90;;;;;;4145326;28;20080;-67
2022/11/20 03:49:42;;;;;;;16.90;10.57;;;5.00;99.90;;;;;;4126920;28;20034;-69
2022/11/20 03:51:43;;;;;;;19.13;11.40;;;5.00;99.90;;;;;;4146492;28;20029;-62
2022/11/20 03:53:46;;;;;;;19.07;11.00;;;5.00;99.90;;;;;;4144689;28;20041;-64
2022/11/20 03:55:51;;;;;;;16.57;10.47;;;5.00;99.90;;;;;;4145793;28;20100;-61
2022/11/20 03:57:52;;;;;;;14.03;8.73;;;5.00;99.90;;;;;;4144057;28;20039;-66
2022/11/20 03:59:53;;;;;;;15.10;8.90;;;5.00;99.90;;;;;;4128255;28;20580;-63
2022/11/20 04:01:54;;;;;;;12.63;7.80;;;5.00;99.90;;;;;;4145391;28;20037;-62
2022/11/20 04:03:56;;;;;;;9.17;6.17;;;4.90;99.90;;;;;;4144231;28;20046;-68
2022/11/20 04:06:03;;;;;;;9.47;6.20;;;4.90;99.90;;;;;;4144652;28;20042;-64
2022/11/20 04:08:04;;;;;;;9.43;6.60;;;4.90;99.90;;;;;;4144185;28;20049;-68
2022/11/20 04:10:05;;;;;;;11.10;5.93;;;4.90;99.90;;;;;;4145492;28;20042;-67
2022/11/20 04:12:07;;;;;;;9.07;6.03;;;4.90;99.90;;;;;;4144652;28;20092;-62
2022/11/20 04:14:14;;;;;;;8.87;6.13;;;5.00;99.90;;;;;;4145576;28;20034;-63
2022/11/20 04:16:16;;;;;;;8.53;5.77;;;4.90;99.90;;;;;;4144691;28;20026;-65
2022/11/20 04:18:17;;;;;;;7.20;4.50;;;5.00;99.90;;;;;;4127632;28;20038;-63
2022/11/20 04:20:18;;;;;;;8.33;4.93;;;5.00;99.90;;;;;;4144725;28;20359;-63
2022/11/20 04:22:19;;;;;;;6.40;4.03;;;4.90;99.90;;;;;;4145795;28;20042;-63
2022/11/20 04:24:20;;;;;;;5.67;3.80;;;4.90;99.90;;;;;;4144129;28;20033;-64
2022/11/20 04:26:23;;;;;;;4.57;3.07;;;5.00;99.90;;;;;;4145930;28;20034;-62
2022/11/20 04:28:24;;;;;;;2.97;2.20;;;4.90;99.90;;;;;;4144577;28;20072;-63
2022/11/20 04:30:25;;;;;;;4.03;2.50;;;4.90;99.90;;;;;;4145384;28;20080;-64
2022/11/20 04:32:27;;;;;;;2.23;1.77;;;4.90;99.90;;;;;;4144591;28;20088;-69
2022/11/20 04:34:28;;;;;;;2.23;1.80;;;4.80;99.90;;;;;;4144472;28;20057;-71
2022/11/20 04:36:30;;;;;;;3.50;1.97;;;4.80;99.90;;;;;;4144498;28;20089;-65
2022/11/20 04:38:31;;;;;;;3.47;2.20;;;4.80;99.90;;;;;;4143825;28;20322;-61
2022/11/20 04:40:32;;;;;;;4.57;2.63;;;4.80;99.90;;;;;;4145287;28;20551;-62
2022/11/20 04:42:33;;;;;;;3.83;2.13;;;4.80;99.90;;;;;;4143843;28;20450;-65
2022/11/20 04:44:34;;;;;;;2.63;2.20;;;4.80;99.90;;;;;;4145644;28;20041;-66
2022/11/20 04:46:39;;;;;;;1.83;1.53;;;4.80;99.90;;;;;;4143576;28;20506;-62
2022/11/20 04:48:40;;;;;;;2.87;1.40;;;4.80;99.90;;;;;;4144553;28;20111;-62
2022/11/20 04:50:41;;;;;;;4.43;2.20;;;4.80;99.90;;;;;;4143759;28;20084;-62
2022/11/20 04:52:42;;;;;;;1.70;1.60;;;4.80;99.90;;;;;;4145075;28;20050;-62
2022/11/20 04:54:43;;;;;;;2.60;1.80;;;4.80;99.90;;;;;;4144221;28;20046;-64
2022/11/20 04:56:44;;;;;;;3.97;1.67;;;4.80;99.90;;;;;;4145327;28;20038;-62
2022/11/20 04:58:46;;;;;;;2.00;1.30;;;4.80;99.90;;;;;;4144402;28;20815;-65
2022/11/20 05:00:47;;;;;;;5.13;2.10;;;4.80;99.90;;;;;;4127474;28;20498;-68
2022/11/20 05:02:48;;;;;;;3.10;1.80;;;4.80;99.90;;;;;;4126719;28;20811;-67
2022/11/20 05:04:49;;;;;;;2.43;1.70;;;4.80;99.90;;;;;;4144855;28;20026;-65
2022/11/20 05:06:50;;;;;;;2.03;1.33;;;4.90;99.90;;;;;;4144823;28;20111;-68
2022/11/20 05:08:51;;;;;;;1.83;1.40;;;4.80;99.90;;;;;;4144321;28;20099;-69
2022/11/20 05:10:52;;;;;;;1.63;1.10;;;4.80;99.90;;;;;;4146358;28;20030;-64
2022/11/20 05:12:53;;;;;;;2.57;1.00;;;4.80;99.90;;;;;;4147419;28;20088;-66
2022/11/20 05:14:54;;;;;;;0.70;0.50;;;4.80;99.90;;;;;;4148461;28;20092;-63
2022/11/20 05:16:55;;;;;;;0.90;0.50;;;4.80;99.90;;;;;;4147251;28;20072;-65
2022/11/20 05:18:56;;;;;;;2.03;0.60;;;4.80;99.90;;;;;;4148523;28;20088;-67
2022/11/20 05:20:58;;;;;;;0.83;0.70;;;4.80;99.90;;;;;;4147643;28;20127;-73
2022/11/20 05:22:59;;;;;;;1.43;0.87;;;4.80;99.90;;;;;;4148423;28;20383;-71
2022/11/20 05:25:00;;;;;;;1.47;0.90;;;4.80;99.90;;;;;;4147217;28;20041;-70
2022/11/20 05:27:01;;;;;;;1.17;0.80;;;4.80;99.90;;;;;;4147965;28;20029;-72
2022/11/20 05:29:03;;;;;;;1.30;1.10;;;4.80;99.90;;;;;;4147121;28;20474;-70
2022/11/20 05:31:05;;;;;;;2.00;0.90;;;4.80;99.90;;;;;;4147786;28;20413;-67
2022/11/20 05:33:06;;;;;;;1.17;1.07;;;4.80;99.90;;;;;;4129418;28;20557;-66
2022/11/20 05:35:07;;;;;;;1.87;1.50;;;4.80;99.90;;;;;;4147835;28;20041;-71
2022/11/20 05:37:08;;;;;;;3.37;2.00;;;4.80;99.90;;;;;;4147359;28;20076;-71
2022/11/20 05:39:09;;;;;;;5.30;2.50;;;4.80;99.90;;;;;;4147230;28;20441;-66
2022/11/20 05:41:16;;;;;;;3.00;2.23;;;4.80;99.90;;;;;;4147395;28;20038;-70
2022/11/20 05:43:17;;;;;;;2.50;1.73;;;4.80;99.90;;;;;;4129465;28;20154;-68
2022/11/20 05:45:19;;;;;;;2.60;2.00;;;4.80;99.90;;;;;;4162002;28;20053;-70
2022/11/20 05:47:20;;;;;;;3.73;1.97;;;4.80;99.90;;;;;;4146259;28;20478;-66
2022/11/20 05:49:21;;;;;;;2.17;1.37;;;4.70;99.90;;;;;;4138019;28;20165;-66
2022/11/20 05:51:22;;;;;;;1.87;1.03;;;4.80;99.90;;;;;;4146248;28;20037;-72
2022/11/20 05:53:23;;;;;;;1.63;1.43;;;4.80;99.90;;;;;;4147318;28;20045;-70
2022/11/20 05:55:25;;;;;;;2.30;1.90;;;4.80;99.90;;;;;;4146216;28;20034;-64
2022/11/20 05:57:26;;;;;;;3.17;1.00;;;4.90;99.90;;;;;;4147048;28;20437;-65
2022/11/20 05:59:27;;;;;;;3.27;1.40;;;4.90;99.90;;;;;;4145941;28;20097;-64
2022/11/20 06:01:29;;;;;;;2.60;1.87;;;4.90;99.90;;;;;;4146741;28;20038;-64
2022/11/20 06:03:30;;;;;;;2.23;1.73;;;5.00;99.90;;;;;;4146330;28;20462;-63
2022/11/20 06:05:33;;;;;;;4.33;1.77;;;5.00;99.90;;;;;;4147490;28;20096;-70
2022/11/20 06:07:34;;;;;;;2.57;1.87;;;5.00;99.90;;;;;;4146770;28;20547;-64
2022/11/20 06:09:35;;;;;;;2.23;1.67;;;5.00;99.90;;;;;;4146194;28;20045;-64
2022/11/20 06:11:36;;;;;;;3.47;1.83;;;5.00;99.90;;;;;;4147026;28;20050;-69
2022/11/20 06:13:38;;;;;;;3.50;1.90;;;4.90;99.90;;;;;;4146481;28;20050;-64
2022/11/20 06:15:39;;;;;;;2.33;2.10;;;5.00;99.90;;;;;;4147319;28;20132;-71
2022/11/20 06:17:40;;;;;;;3.37;2.37;;;4.90;99.90;;;;;;4145441;28;20525;-67
2022/11/20 06:19:41;;;;;;;3.67;3.00;;;5.00;99.90;;;;;;4129721;28;20124;-69
2022/11/20 06:21:42;;;;;;;3.60;2.60;;;5.00;99.90;;;;;;4145970;28;20030;-63
2022/11/20 06:23:44;;;;;;;3.67;2.67;;;5.00;99.90;;;;;;4147325;28;20096;-64
2022/11/20 06:25:45;;;;;;;4.73;3.00;;;4.90;99.90;;;;;;4146361;28;20026;-64
2022/11/20 06:27:46;;;;;;;3.77;2.80;;;5.00;99.90;;;;;;4146577;28;20065;-70
2022/11/20 06:29:47;;;;;;;3.43;2.80;;;4.90;99.90;;;;;;4146286;28;20429;-64
2022/11/20 06:31:48;;;;;;;3.57;2.73;;;5.00;99.90;;;;;;4147020;28;20128;-67
2022/11/20 06:33:50;;;;;;;11.37;6.30;;;5.00;99.90;;;;;;4146013;28;20052;-64
2022/11/20 06:35:52;;;;;;;3.70;2.90;;;5.00;99.90;;;;;;4146897;28;20037;-65
2022/11/20 06:37:53;;;;;;;4.40;2.67;;;5.00;99.90;;;;;;4146103;28;20034;-64
2022/11/20 06:39:54;;;;;;;4.20;2.80;;;5.00;99.90;;;;;;4145623;28;20054;-64
2022/11/20 06:41:55;;;;;;;4.70;2.77;;;5.00;99.90;;;;;;4128851;28;20032;-67
2022/11/20 06:43:56;;;;;;;3.73;2.53;;;5.10;99.90;;;;;;4145045;28;20034;-63
2022/11/20 06:45:58;;;;;;;3.03;2.30;;;5.10;99.90;;;;;;4145907;28;20092;-64
2022/11/20 06:47:59;;;;;;;3.57;2.20;;;5.20;99.90;;;;;;4145368;28;20034;-64
2022/11/20 06:50:01;;;;;;;3.27;2.33;;;5.20;99.90;;;;;;4146071;28;20102;-64
2022/11/20 06:52:02;;;;;;;2.80;2.13;;;5.10;99.90;;;;;;4145960;28;20034;-67
2022/11/20 06:54:03;;;;;;;2.83;2.10;;;5.20;99.90;;;;;;4128000;28;20050;-65
2022/11/20 06:56:06;;;;;;;5.83;2.60;;;5.20;99.90;;;;;;4144534;28;20046;-68
2022/11/20 06:58:07;;;;;;;3.33;2.40;;;5.20;99.90;;;;;;4146406;28;20092;-63
2022/11/20 07:00:09;;;;;;;3.17;2.23;;;5.20;99.90;;;;;;4145542;28;20076;-68
2022/11/20 07:02:11;;;;;;;3.43;2.70;;;5.30;99.90;;;;;;4129132;28;20051;-71
2022/11/20 07:04:13;;;;;;;3.97;2.70;;;5.30;99.90;;;;;;4145407;28;20041;-64
2022/11/20 07:06:14;;;;;;;5.33;2.60;;;5.30;99.90;;;;;;4146374;28;20103;-66
2022/11/20 07:08:15;;;;;;;3.73;2.60;;;5.30;99.90;;;;;;4128103;28;20038;-64
2022/11/20 07:10:16;;;;;;;3.30;2.50;;;5.40;99.90;;;;;;4145820;28;20172;-67
2022/11/20 07:12:17;;;;;;;8.27;2.47;;;5.40;99.90;;;;;;4145429;28;20034;-70
2022/11/20 07:14:18;;;;;;;2.77;2.17;;;5.40;99.90;;;;;;4144863;28;20034;-65
2022/11/20 07:16:19;;;;;;;3.70;2.60;;;5.50;99.90;;;;;;4145525;28;20100;-67
2022/11/20 07:18:22;;;;;;;3.50;1.97;;;5.50;99.90;;;;;;4144702;28;20453;-63
2022/11/20 07:20:23;;;;;;;3.80;1.97;;;5.50;99.90;;;;;;4145489;28;20084;-67
2022/11/20 07:22:24;;;;;;;3.57;2.60;;;5.50;99.90;;;;;;4145777;28;20026;-62
2022/11/20 07:24:25;;;;;;;2.67;1.80;;;5.50;99.90;;;;;;4145901;28;20025;-65
2022/11/20 07:26:26;;;;;;;2.57;2.10;;;5.60;99.90;;;;;;4144364;28;20084;-69
2022/11/20 07:28:27;;;;;;;2.40;2.13;;;5.60;99.90;;;;;;4146283;28;20430;-63
2022/11/20 07:30:29;;;;;;;3.17;2.30;;;5.60;99.90;;;;;;4145147;28;20033;-69
2022/11/20 07:32:30;;;;;;;2.87;2.07;;;5.60;99.90;;;;;;4144588;28;20058;-68
2022/11/20 07:34:32;;;;;;;3.20;2.60;;;5.60;99.90;;;;;;4144246;28;20034;-64
2022/11/20 07:36:33;;;;;;;3.50;2.57;;;5.60;99.90;;;;;;4145599;28;20088;-64
2022/11/20 07:38:34;;;;;;;4.50;2.80;;;5.60;99.90;;;;;;4144341;28;20379;-64
2022/11/20 07:40:35;;;;;;;3.73;2.77;;;5.60;99.90;;;;;;4145707;28;20022;-65
2022/11/20 07:42:36;;;;;;;4.40;2.93;;;5.60;99.90;;;;;;4144952;28;20046;-67
2022/11/20 07:44:37;;;;;;;3.63;2.83;;;5.60;99.90;;;;;;4145199;28;20473;-66
2022/11/20 07:46:38;;;;;;;4.73;3.00;;;5.60;99.90;;;;;;4145496;28;20568;-71
2022/11/20 07:48:39;;;;;;;3.47;2.97;;;5.50;99.90;;;;;;4144124;28;20046;-64
2022/11/20 07:50:40;;;;;;;6.57;4.13;;;5.50;99.90;;;;;;4145572;28;20088;-64
2022/11/20 07:52:42;;;;;;;3.90;3.10;;;5.60;99.90;;;;;;4144870;28;20091;-63
2022/11/20 07:54:43;;;;;;;4.57;3.60;;;5.60;99.90;;;;;;4145795;28;20474;-64
2022/11/20 07:56:44;;;;;;;6.37;3.90;;;5.60;99.90;;;;;;4143665;28;20080;-65
2022/11/20 07:58:46;;;;;;;6.97;3.40;;;5.60;99.90;;;;;;4144420;28;20097;-64
2022/11/20 08:00:47;;;;;;;4.60;3.10;;;5.60;99.90;;;;;;4144163;28;20080;-65
2022/11/20 08:02:48;;;;;;;5.10;3.60;;;5.50;99.90;;;;;;4145448;28;20371;-63
2022/11/20 08:04:49;;;;;;;5.40;3.47;;;5.60;99.90;;;;;;4143076;28;20033;-64
2022/11/20 08:06:52;;;;;;;5.43;3.93;;;5.60;99.90;;;;;;4145545;28;20092;-66
2022/11/20 08:08:53;;;;;;;4.50;3.67;;;5.60;99.90;;;;;;4144538;28;20080;-67
2022/11/20 08:14:11;;;;;;;4.63;3.90;;;5.60;99.90;;;;;;4145471;28;20100;-66
2022/11/20 08:15:39;;;;;;;6.03;4.33;;;5.60;99.90;;;;;;4124804;28;20069;-65
2022/11/20 08:17:41;;;;;;;7.10;3.97;;;5.70;99.90;;;;;;4144411;28;20073;-65
2022/11/20 08:19:42;;;;;;;5.23;3.90;;;5.70;99.90;;;;;;4145640;28;20097;-69
2022/11/20 08:21:43;;;;;;;7.17;4.20;;;5.70;99.90;;;;;;4144540;28;20034;-64
2022/11/20 08:23:44;;;;;;;6.00;4.30;;;5.70;99.90;;;;;;4144957;28;20478;-69
2022/11/20 08:25:50;;;;;;;6.77;4.60;;;5.70;99.90;;;;;;4144075;28;20026;-64
2022/11/20 08:27:51;;;;;;;6.43;4.33;;;5.80;99.90;;;;;;4144778;28;20026;-65
2022/11/20 08:29:52;;;;;;;6.10;4.23;;;5.80;99.90;;;;;;4144917;28;20034;-68
2022/11/20 08:31:53;;;;;;;9.43;5.57;;;5.80;99.90;;;;;;4144303;28;20469;-68
2022/11/20 08:33:54;;;;;;;10.93;7.33;;;5.90;99.90;;;;;;4145792;28;20041;-63
2022/11/20 08:36:03;;;;;;;6.80;4.50;;;5.90;99.90;;;;;;4144791;28;20535;-70
2022/11/20 08:38:05;;;;;;;5.97;4.50;;;6.00;99.90;;;;;;4147019;28;20064;-71
2022/11/20 08:40:10;;;;;;;6.10;4.10;;;5.90;99.90;;;;;;4144684;28;20577;-62
2022/11/20 08:42:11;;;;;;;7.73;4.47;;;5.90;99.90;;;;;;4145361;28;20104;-67
2022/11/20 08:44:12;;;;;;;7.40;5.10;;;5.80;99.90;;;;;;4143289;28;20116;-68
2022/11/20 08:46:13;;;;;;;9.33;5.27;;;5.80;99.90;;;;;;4144819;28;20049;-64
2022/11/20 08:48:15;;;;;;;8.73;6.27;;;5.80;99.90;;;;;;4143322;28;20112;-67
2022/11/20 08:50:17;;;;;;;7.83;5.93;;;5.80;99.90;;;;;;4145273;28;20030;-69
2022/11/20 08:52:18;;;;;;;8.87;5.57;;;5.80;99.90;;;;;;4144479;28;20026;-65
2022/11/20 08:54:21;;;;;;;7.40;5.37;;;5.80;99.90;;;;;;4144825;28;20038;-66
2022/11/20 08:56:22;;;;;;;7.67;5.63;;;5.80;99.90;;;;;;4143724;28;20551;-66
2022/11/20 08:58:24;;;;;;;7.63;5.60;;;5.90;99.90;;;;;;4144660;28;20042;-66
2022/11/20 09:00:25;;;;;;;12.30;6.30;;;5.90;99.90;;;;;;4143275;28;20127;-69
2022/11/20 09:02:27;;;;;;;10.33;6.40;;;6.00;99.90;;;;;;4126859;28;20478;-67
2022/11/20 09:04:28;;;;;;;10.23;5.90;;;6.00;99.90;;;;;;4144653;28;20077;-68
2022/11/20 09:06:29;;;;;;;7.97;5.97;;;6.00;99.90;;;;;;4143625;28;20038;-70
2022/11/20 09:08:31;;;;;;;9.47;6.20;;;6.00;99.90;;;;;;4144924;28;20042;-66
2022/11/20 09:10:32;;;;;;;9.83;6.77;;;6.00;99.90;;;;;;4143789;28;20033;-65
2022/11/20 09:12:33;;;;;;;11.37;7.47;;;6.00;99.90;;;;;;4144953;28;20038;-70
2022/11/20 09:14:34;;;;;;;9.00;6.47;;;6.00;99.90;;;;;;4142771;28;20108;-67
2022/11/20 09:16:35;;;;;;;8.90;6.47;;;6.00;99.90;;;;;;4145501;28;20049;-73
2022/11/20 09:18:37;;;;;;;9.10;6.67;;;6.10;99.90;;;;;;4143546;28;20080;-66
2022/11/20 09:20:38;;;;;;;9.90;6.20;;;6.10;99.90;;;;;;4145039;28;20034;-67
2022/11/20 09:22:40;;;;;;;8.47;6.30;;;6.10;99.90;;;;;;4144416;28;20034;-72
2022/11/20 09:24:42;;;;;;;8.70;6.03;;;6.20;99.90;;;;;;4144992;28;20038;-67
2022/11/20 09:26:44;;;;;;;8.93;6.40;;;6.30;99.90;;;;;;4125831;28;20042;-68
2022/11/20 09:28:45;;;;;;;10.00;6.17;;;6.40;99.90;;;;;;4144086;28;20088;-70
2022/11/20 09:30:46;;;;;;;7.63;5.03;;;6.40;99.90;;;;;;4143878;28;20018;-65
2022/11/20 09:32:47;;;;;;;9.07;6.37;;;6.50;99.90;;;;;;4143560;28;20100;-70
2022/11/20 09:34:48;;;;;;;6.90;4.87;;;6.50;99.90;;;;;;4143568;28;20054;-65
2022/11/20 09:36:49;;;;;;;6.80;4.97;;;6.50;99.90;;;;;;4143435;28;20046;-67
2022/11/20 09:38:50;;;;;;;6.80;5.20;;;6.60;99.90;;;;;;4144327;28;20092;-66
2022/11/20 09:41:02;;;;;;;7.03;5.20;;;6.50;99.90;;;;;;4143593;28;20076;-65
2022/11/20 09:43:13;;;;;;;6.20;5.17;;;6.60;99.90;;;;;;4144292;28;20045;-67
2022/11/20 09:45:21;;;;;;;6.33;4.83;;;6.60;99.90;;;;;;4142178;28;20096;-64
2022/11/20 09:47:41;;;;;;;7.33;5.00;;;6.60;99.90;;;;;;4144070;28;20359;-67
2022/11/20 09:50:06;;;;;;;8.48;6.28;;;6.60;99.90;;;;;;4143501;28;20030;-72
2022/11/20 09:52:42;;;;;;;9.37;6.57;;;6.60;99.90;;;;;;4145706;28;20076;-65
2022/11/20 09:54:44;;;;;;;6.80;4.50;;;6.60;99.90;;;;;;4129283;28;20055;-64
2022/11/20 09:56:50;;;;;;;8.57;5.67;;;6.60;99.90;;;;;;4144348;28;20053;-67
2022/11/20 09:58:54;;;;;;;21.40;12.53;;;6.60;99.90;;;;;;4146536;28;20072;-67
2022/11/20 10:01:00;;;;;;;98.43;59.17;;;6.60;99.90;;;;;;4145388;28;20875;-63
2022/11/20 10:03:17;;;;;;;26.20;19.17;;;6.60;99.90;;;;;;4145456;28;20041;-63
2022/11/20 10:05:27;;;;;;;15.03;11.10;;;6.60;99.90;;;;;;4145726;28;20033;-64
2022/11/20 10:07:38;;;;;;;11.57;8.90;;;6.60;99.90;;;;;;4143041;28;20049;-63
2022/11/20 10:09:44;;;;;;;10.10;7.50;;;6.50;99.90;;;;;;4146259;28;20053;-65
2022/11/20 10:12:17;;;;;;;7.30;5.27;;;6.60;99.90;;;;;;4145700;28;20049;-73
2022/11/20 10:14:47;;;;;;;6.90;4.00;;;6.50;99.90;;;;;;4143659;28;20128;-65
2022/11/20 10:17:24;;;;;;;5.87;4.17;;;6.50;99.90;;;;;;4123490;28;20107;-64
2022/11/20 10:19:34;;;;;;;10.00;3.73;;;6.50;99.90;;;;;;4124502;28;20038;-71
2022/11/20 10:21:56;;;;;;;8.53;4.80;;;6.50;99.90;;;;;;4138804;28;20354;-64
2022/11/20 10:24:17;;;;;;;4.33;3.63;;;6.50;99.90;;;;;;4145653;28;20037;-67
2022/11/20 10:26:38;;;;;;;5.87;3.83;;;6.50;99.90;;;;;;4145566;28;20081;-62
2022/11/20 10:29:00;;;;;;;5.90;4.40;;;6.50;99.90;;;;;;4145673;28;20092;-63
2022/11/20 10:31:28;;;;;;;5.33;4.07;;;6.50;99.90;;;;;;4129081;28;20092;-62
2022/11/20 10:33:35;;;;;;;5.30;3.57;;;6.50;99.90;;;;;;4144990;28;20088;-63
2022/11/20 10:35:51;;;;;;;4.57;3.40;;;6.50;99.90;;;;;;4145490;28;20053;-63
2022/11/20 10:38:25;;;;;;;4.63;4.20;;;6.50;99.90;;;;;;4145897;28;20046;-64
2022/11/20 10:40:41;;;;;;;6.93;3.90;;;6.50;99.90;;;;;;4145444;28;20119;-66
2022/11/20 10:42:55;;;;;;;5.13;3.57;;;6.60;99.90;;;;;;4146789;28;20037;-71
2022/11/20 10:45:15;;;;;;;5.43;4.20;;;6.60;99.90;;;;;;4144749;28;20038;-67
2022/11/20 10:47:18;;;;;;;15.47;10.80;;;6.60;99.90;;;;;;4146883;28;20088;-63
2022/11/20 10:49:19;;;;;;;11.00;7.93;;;6.60;99.90;;;;;;4144706;28;20096;-71